Portada
METAR-TAF:

METAR-TAF

Aeroports :

Sint Maarten, Antilles Neerlandeses

latitud: 18-03N, longitud: 063-07W, altitud: 4 m

Observació

L'informe es va fer fa 35 minuts, a les 04:00 UTC
Vent 11 kt del Nord-Est
Temperatura 25°C
Humitat 69%
Pressió 1019 hPa
Visibilitat 10 km o més
Escasses núvols a una alçada de 2000 ft

METAR: TNCM 300400Z 05011KT 9999 FEW020 25/19 Q1019

Hora: 00:35 (04:35 UTC)

Pronòstic

L'informe es va fer fa 5 hores i 6 minuts, a les 23:29 UTC
Pronòstic vàlid del 30 a les 00 UTC al 30 a les 24 UTC
Vent 13 kt del Est/Nord-Est
Visibilitat: 10 km
Cel clar

TAF: TNCM 292329Z 3000/3024 06013KT P6SM SKC

Observacions i pronòstics meteorològics de més de 4000 aeroports (METAR i TAF).

Les estacions disponibles són els punts grocs i vermells al mapa.

Posi el ratolí al punt desitjat per veure el nom de l'estació.

Feu clic per veure les observacions i els pronòstics meteorològics.

Per canviar el mapa: feu clic els botons verds amb una creu de color negre per apropar; al botó verd amb un guió per allunyar la imatge; o en les fletxes verdes per a mapes adjacents.


METAR-TAF: